Time;durP1;ratioP1;P1;durP2;ratioP2;P2;SDS_P1;SDS_P2;PMS_P1;PMS_P2;Temp;Humidity;BMP_temperature;BMP_pressure;BME280_temperature;BME280_humidity;BME280_pressure;Samples;Min_cycle;Max_cycle;Signal;HPM_P1;HPM_P2
2023/02/06 00:13:04;;;;;;;9.70;3.20;;;;;;;16.88;56.19;104476.69;6146451;23;20026;-87
2023/02/06 00:33:53;;;;;;;8.25;3.10;;;;;;;16.86;55.95;104468.78;6173878;23;20028;-88
2023/02/06 00:44:20;;;;;;;9.23;3.13;;;;;;;16.84;55.87;104472.13;6209627;23;20024;-84
2023/02/06 00:47:06;;;;;;;8.18;2.92;;;;;;;16.84;55.98;104469.53;6178143;23;20450;-85
2023/02/06 00:49:40;;;;;;;7.45;3.05;;;;;;;16.82;55.79;104472.03;6127408;23;20009;-84
2023/02/06 00:52:43;;;;;;;8.88;2.88;;;;;;;16.84;55.80;104469.53;6126055;23;20009;-84
2023/02/06 01:06:23;;;;;;;7.85;3.10;;;;;;;16.80;55.74;104450.25;6171347;23;20060;-81
2023/02/06 01:09:45;;;;;;;7.38;2.80;;;;;;;16.82;55.61;104460.75;6209365;23;20052;-82
2023/02/06 01:12:12;;;;;;;8.68;2.90;;;;;;;16.82;55.82;104447.75;6036465;23;20035;-81
2023/02/06 01:18:22;;;;;;;8.27;2.90;;;;;;;16.80;55.66;104445.06;6065743;23;20022;-84
2023/02/06 01:37:44;;;;;;;6.65;2.25;;;;;;;16.79;55.47;104464.06;6148976;23;20022;-83
2023/02/06 01:51:02;;;;;;;6.85;2.70;;;;;;;16.77;55.47;104451.81;6149421;23;20002;-85
2023/02/06 01:56:18;;;;;;;10.75;2.90;;;;;;;16.75;55.32;104441.31;6148077;23;20025;-83
2023/02/06 01:59:09;;;;;;;8.52;2.65;;;;;;;16.78;55.42;104443.16;6148666;23;20006;-84
2023/02/06 02:01:41;;;;;;;8.18;2.78;;;;;;;16.78;55.29;104437.97;6142606;23;20139;-84
2023/02/06 02:07:45;;;;;;;6.95;2.47;;;;;;;16.75;55.19;104440.41;6152189;23;20070;-84
2023/02/06 02:37:14;;;;;;;5.97;2.47;;;;;;;16.73;54.83;104427.31;6148519;23;20029;-82
2023/02/06 02:43:29;;;;;;;6.72;2.33;;;;;;;16.73;55.10;104413.44;6164495;23;20014;-82
2023/02/06 02:50:06;;;;;;;7.53;2.33;;;;;;;16.72;55.02;104409.91;6181864;23;20093;-82
2023/02/06 02:52:51;;;;;;;5.60;2.15;;;;;;;16.72;54.97;104412.53;6121775;23;20006;-82
2023/02/06 03:01:12;;;;;;;5.32;2.15;;;;;;;16.72;54.94;104422.03;6196811;23;20023;-84
2023/02/06 03:07:45;;;;;;;7.78;2.42;;;;;;;16.73;54.81;104427.31;6214104;23;20011;-84
2023/02/06 03:11:20;;;;;;;5.00;2.13;;;;;;;16.72;54.88;104422.91;6061715;23;20011;-84
2023/02/06 03:14:28;;;;;;;5.65;1.95;;;;;;;16.73;54.82;104432.53;5990723;23;20011;-83
2023/02/06 03:20:34;;;;;;;5.80;2.15;;;;;;;16.72;54.99;104414.22;6065981;23;20010;-84
2023/02/06 03:26:59;;;;;;;4.35;1.70;;;;;;;16.74;54.94;104421.28;6063036;23;20063;-83
2023/02/06 03:29:32;;;;;;;4.50;2.00;;;;;;;16.75;54.67;104417.00;6002405;24;20012;-83
2023/02/06 03:32:07;;;;;;;4.72;1.90;;;;;;;16.73;54.70;104408.25;5976918;24;20016;-83
2023/02/06 03:38:15;;;;;;;5.53;2.13;;;;;;;16.73;54.75;104410.84;6001699;24;20019;-85
2023/02/06 03:40:48;;;;;;;4.88;1.90;;;;;;;16.73;54.69;104408.25;6034168;23;20013;-84
2023/02/06 03:43:17;;;;;;;5.13;2.10;;;;;;;16.72;54.53;104404.72;6096116;23;20014;-83
2023/02/06 04:13:56;;;;;;;4.88;1.80;;;;;;;16.70;54.56;104436.66;6142445;23;20024;-83
2023/02/06 04:16:24;;;;;;;3.95;1.58;;;;;;;16.71;54.75;104446.28;6145385;23;20021;-83
2023/02/06 04:19:12;;;;;;;6.55;2.33;;;;;;;16.69;54.61;104443.59;6144858;23;20017;-85
2023/02/06 04:21:45;;;;;;;5.63;1.85;;;;;;;16.67;54.39;104442.63;6146522;23;20006;-83
2023/02/06 05:24:04;;;;;;;4.38;1.65;;;;;;;16.67;54.14;104425.28;6150243;23;20064;-85
2023/02/06 05:32:02;;;;;;;3.70;1.65;;;;;;;16.67;54.31;104425.28;6152371;23;20051;-85
2023/02/06 05:59:33;;;;;;;6.03;1.77;;;;;;;16.70;54.11;104434.06;6144374;23;20025;-82
2023/02/06 06:02:20;;;;;;;4.40;1.60;;;;;;;16.70;54.10;104419.38;6087097;23;20025;-82
2023/02/06 06:05:04;;;;;;;4.05;1.70;;;;;;;16.71;54.01;104420.28;6084093;23;20010;-82
2023/02/06 06:07:35;;;;;;;5.30;1.77;;;;;;;16.74;54.17;104428.22;6080396;23;20006;-84
2023/02/06 06:10:01;;;;;;;3.90;1.73;;;;;;;16.75;54.25;104423.09;6075600;23;20050;-82
2023/02/06 06:12:27;;;;;;;5.88;2.08;;;;;;;16.73;54.00;104411.72;6076046;23;20467;-84
2023/02/06 06:14:53;;;;;;;8.88;1.90;;;;;;;16.82;54.43;104408.72;6047745;23;20062;-83
2023/02/06 06:17:27;;;;;;;7.15;1.90;;;;;;;16.93;54.75;104412.75;6057489;23;20002;-83
2023/02/06 06:19:54;;;;;;;7.65;1.63;;;;;;;16.96;54.57;104412.94;6084115;23;20547;-83
2023/02/06 06:22:20;;;;;;;4.43;1.67;;;;;;;16.99;54.80;104414.78;6084505;23;20011;-87
2023/02/06 06:34:21;;;;;;;4.57;1.58;;;;;;;17.03;54.69;104414.13;6178881;23;20013;-81
2023/02/06 06:36:46;;;;;;;8.95;2.85;;;;;;;17.04;54.75;104405.50;6137745;23;20005;-82
2023/02/06 06:39:12;;;;;;;17.80;4.72;;;;;;;17.08;54.70;104403.94;6143323;23;20032;-81
2023/02/06 06:41:37;;;;;;;13.90;3.67;;;;;;;17.11;54.77;104406.69;6134841;23;20009;-81
2023/02/06 06:47:02;;;;;;;12.10;3.58;;;;;;;17.13;54.81;104412.84;6143143;23;20067;-82
2023/02/06 06:49:28;;;;;;;11.68;3.35;;;;;;;17.15;54.82;104403.41;6163054;23;20013;-81
2023/02/06 06:51:55;;;;;;;8.85;3.00;;;;;;;17.14;54.73;104405.13;6163659;23;20084;-84
2023/02/06 06:57:41;;;;;;;7.28;2.78;;;;;;;17.17;54.54;104413.06;6169132;23;20025;-90
2023/02/06 07:16:41;;;;;;;6.80;2.33;;;;;;;17.20;54.38;104410.66;6195404;23;20044;-90
2023/02/06 07:22:31;;;;;;;7.10;2.50;;;;;;;17.20;54.31;104405.44;6202085;23;20029;-89
2023/02/06 07:30:29;;;;;;;6.50;2.65;;;;;;;17.19;54.50;104395.81;6188171;23;20021;-90
2023/02/06 07:32:58;;;;;;;7.57;2.90;;;;;;;17.20;54.39;104391.50;6158049;23;19989;-88
2023/02/06 07:38:47;;;;;;;7.13;2.55;;;;;;;17.20;54.14;104379.41;6208017;23;20048;-88
2023/02/06 07:41:19;;;;;;;6.55;2.80;;;;;;;17.22;54.21;104379.47;6178046;23;19997;-89
2023/02/06 07:47:31;;;;;;;5.80;2.60;;;;;;;17.23;54.04;104374.34;6209107;23;20028;-88
2023/02/06 07:49:58;;;;;;;5.65;2.40;;;;;;;17.21;54.03;104368.16;6152930;23;20338;-89
2023/02/06 07:52:23;;;;;;;5.72;2.45;;;;;;;17.23;53.92;104371.72;6178348;23;19998;-89
2023/02/06 07:54:49;;;;;;;5.85;2.13;;;;;;;17.22;53.76;104350.81;6180159;23;20099;-89
2023/02/06 07:57:14;;;;;;;4.93;2.40;;;;;;;17.24;54.09;104344.88;6154439;23;20004;-89
2023/02/06 07:59:40;;;;;;;5.15;2.25;;;;;;;17.25;53.80;104344.06;6185819;23;20009;-88
2023/02/06 08:02:05;;;;;;;4.85;2.30;;;;;;;17.26;53.71;104338.03;6133649;23;20001;-89
2023/02/06 08:04:34;;;;;;;4.82;2.47;;;;;;;17.28;53.79;104336.41;6156678;23;20009;-89
2023/02/06 08:07:01;;;;;;;4.85;2.15;;;;;;;17.30;53.69;104314.78;6177476;23;20005;-89
2023/02/06 08:09:27;;;;;;;5.50;2.50;;;;;;;17.30;53.65;104322.56;6153173;23;20009;-89
2023/02/06 08:11:52;;;;;;;7.05;2.40;;;;;;;17.30;53.56;104315.66;6157631;23;20005;-89
2023/02/06 08:14:18;;;;;;;7.75;2.50;;;;;;;17.33;53.41;104320.09;6156015;23;20013;-89
2023/02/06 08:16:43;;;;;;;5.55;1.88;;;;;;;17.34;53.26;104317.59;6152812;23;20015;-90
2023/02/06 08:19:11;;;;;;;4.72;1.98;;;;;;;17.33;53.46;104310.56;6119168;23;20001;-89
2023/02/06 08:21:37;;;;;;;7.65;2.58;;;;;;;17.35;53.54;104315.84;6169000;23;20001;-88
2023/02/06 08:24:03;;;;;;;6.18;2.53;;;;;;;17.33;53.43;104310.56;6151646;23;20016;-89
2023/02/06 08:26:47;;;;;;;5.30;2.40;;;;;;;17.35;53.48;104308.06;6172539;23;20020;-89
2023/02/06 08:29:13;;;;;;;6.03;2.22;;;;;;;17.35;53.32;104311.53;6166888;23;20381;-83
2023/02/06 08:31:40;;;;;;;4.90;2.33;;;;;;;17.35;53.37;104319.34;6137037;23;20017;-84
2023/02/06 08:34:09;;;;;;;5.15;2.17;;;;;;;17.34;53.23;104317.59;6162090;23;20084;-83
2023/02/06 08:36:34;;;;;;;7.50;2.38;;;;;;;17.34;53.16;104314.97;6161488;23;20012;-84
2023/02/06 08:39:02;;;;;;;6.38;2.50;;;;;;;17.36;53.14;104330.69;6161883;23;20325;-83
2023/02/06 08:41:31;;;;;;;4.68;2.20;;;;;;;17.36;53.34;104320.25;6188121;23;20024;-83
2023/02/06 08:44:00;;;;;;;5.57;2.42;;;;;;;17.41;53.06;104317.03;6187843;23;20088;-84
2023/02/06 08:46:28;;;;;;;4.50;1.90;;;;;;;17.48;53.05;104320.81;6160960;23;20005;-83
2023/02/06 08:49:01;;;;;;;5.57;2.30;;;;;;;17.47;52.97;104317.31;6160713;23;20421;-82
2023/02/06 08:51:27;;;;;;;;;;;;;;;17.48;52.99;104306.09;6195172;23;20028;-84
2023/02/06 08:54:01;;;;;;;5.80;2.65;;;;;;;17.50;52.98;104306.16;6169213;23;20321;-83
2023/02/06 08:56:27;;;;;;;4.53;2.28;;;;;;;17.51;52.71;104304.44;6169250;23;20008;-83
2023/02/06 08:58:53;;;;;;;4.95;2.38;;;;;;;17.54;52.69;104313.28;6144783;23;20009;-83
2023/02/06 09:01:19;;;;;;;4.78;2.10;;;;;;;17.54;52.85;104305.47;6167191;23;19997;-83
2023/02/06 09:03:46;;;;;;;5.28;2.60;;;;;;;17.57;52.69;104302.13;6170028;23;20046;-88
2023/02/06 09:06:13;;;;;;;4.55;2.22;;;;;;;17.60;52.57;104304.88;6170024;23;20031;-83
2023/02/06 09:09:01;;;;;;;5.45;2.25;;;;;;;17.60;52.80;104312.69;6165453;23;20017;-83
2023/02/06 09:11:27;;;;;;;6.13;2.03;;;;;;;17.60;52.78;104312.69;6164508;23;20072;-86
2023/02/06 09:13:55;;;;;;;4.22;2.00;;;;;;;17.59;52.50;104303.09;6162914;23;20005;-84
2023/02/06 09:16:22;;;;;;;5.40;1.90;;;;;;;17.59;52.66;104293.53;6162126;23;20008;-84
2023/02/06 09:18:49;;;;;;;5.43;2.33;;;;;;;17.61;52.73;104293.63;6162882;23;20008;-83
2023/02/06 09:21:17;;;;;;;6.30;2.17;;;;;;;17.61;52.64;104285.81;6137586;23;20054;-83
2023/02/06 09:23:46;;;;;;;6.40;2.08;;;;;;;17.61;52.39;104286.69;6162403;23;20005;-84
2023/02/06 09:26:18;;;;;;;5.22;2.15;;;;;;;17.62;52.62;104298.03;6162281;23;20127;-85
2023/02/06 09:28:43;;;;;;;6.13;1.92;;;;;;;17.63;52.77;104297.19;6162116;23;20009;-84
2023/02/06 09:31:09;;;;;;;5.38;2.40;;;;;;;17.61;52.62;104291.91;6161386;23;20048;-85
2023/02/06 09:33:38;;;;;;;4.93;2.30;;;;;;;17.61;52.64;104298.84;6161865;23;20009;-84
2023/02/06 09:36:09;;;;;;;4.88;1.92;;;;;;;17.60;52.41;104292.75;6189616;23;20391;-92
2023/02/06 09:38:37;;;;;;;4.47;2.03;;;;;;;17.60;52.64;104300.56;6166399;23;20140;-90
2023/02/06 09:41:09;;;;;;;5.18;2.08;;;;;;;17.62;52.72;104298.03;6166676;23;20011;-89
2023/02/06 09:43:35;;;;;;;4.82;2.08;;;;;;;17.61;52.74;104296.22;6165828;23;19997;-89
2023/02/06 09:46:03;;;;;;;4.13;1.80;;;;;;;17.62;52.71;104300.63;6165972;23;20040;-90
2023/02/06 09:48:33;;;;;;;3.97;1.98;;;;;;;17.62;52.64;104298.03;6165711;23;20009;-91
2023/02/06 09:55:17;;;;;;;5.25;2.00;;;;;;;17.61;52.57;104304.94;6195704;23;20071;-91
2023/02/06 09:58:23;;;;;;;4.47;2.15;;;;;;;17.63;52.68;104310.22;6168435;23;20028;-90
2023/02/06 10:08:11;;;;;;;4.30;1.80;;;;;;;17.69;52.36;104315.72;6194715;23;20023;-90
2023/02/06 10:10:57;;;;;;;4.95;1.70;;;;;;;17.67;52.36;104313.03;6168211;23;20017;-89
2023/02/06 10:13:31;;;;;;;4.20;1.80;;;;;;;17.67;52.37;104314.75;6169839;23;20031;-89
2023/02/06 10:16:03;;;;;;;3.63;1.58;;;;;;;17.71;52.33;104315.78;6167205;23;20001;-90
2023/02/06 10:18:38;;;;;;;5.68;1.95;;;;;;;17.72;52.38;104320.16;6165963;23;20024;-89
2023/02/06 10:21:41;;;;;;;3.55;1.77;;;;;;;17.68;52.20;104316.50;6165153;23;20056;-90
2023/02/06 10:24:15;;;;;;;3.63;1.77;;;;;;;17.66;52.44;104316.47;6148416;23;20001;-89
2023/02/06 10:26:40;;;;;;;;;;;;;;;17.67;52.21;104318.22;6165905;23;20504;-91
2023/02/06 10:29:16;;;;;;;3.67;1.70;;;;;;;17.69;52.36;104318.31;6138888;23;19919;-90
2023/02/06 10:32:08;;;;;;;4.28;2.00;;;;;;;17.69;52.30;104324.41;6163906;23;20509;-90
2023/02/06 10:34:42;;;;;;;4.35;1.80;;;;;;;17.73;52.20;104321.97;6148074;23;20323;-90
2023/02/06 10:44:21;;;;;;;3.72;1.40;;;;;;;17.74;52.08;104319.41;6192654;23;20048;-91
2023/02/06 10:46:53;;;;;;;3.83;1.80;;;;;;;17.73;52.22;104315.03;6134761;23;20005;-91
2023/02/06 10:49:44;;;;;;;3.25;1.60;;;;;;;17.74;52.17;104321.13;6165469;23;20005;-90
2023/02/06 10:52:31;;;;;;;3.50;1.58;;;;;;;17.73;52.28;104317.63;6164762;23;20144;-90
2023/02/06 10:55:13;;;;;;;3.83;1.65;;;;;;;17.71;51.96;104316.66;6164980;23;19997;-90
2023/02/06 10:57:40;;;;;;;3.95;1.70;;;;;;;17.71;52.15;104324.47;6164971;23;20005;-90
2023/02/06 11:00:17;;;;;;;3.45;1.55;;;;;;;17.71;52.00;104321.88;6140475;23;20088;-90
2023/02/06 11:02:54;;;;;;;3.65;1.60;;;;;;;17.72;51.83;104320.16;6174990;23;20001;-90
2023/02/06 11:05:33;;;;;;;3.63;1.52;;;;;;;17.74;52.29;104322.00;6184711;23;20012;-90
2023/02/06 11:08:12;;;;;;;4.15;1.63;;;;;;;17.73;52.06;104321.97;6152865;23;20009;-90
2023/02/06 11:10:38;;;;;;;3.25;1.38;;;;;;;17.73;51.93;104320.25;6167484;23;20008;-91
2023/02/06 11:13:25;;;;;;;4.68;1.60;;;;;;;17.74;52.05;104324.59;6166605;23;20015;-90
2023/02/06 11:16:02;;;;;;;3.88;1.73;;;;;;;17.77;52.06;104313.44;6168002;23;20004;-91
2023/02/06 11:18:32;;;;;;;3.85;1.60;;;;;;;17.79;51.94;104319.59;6175175;23;20005;-91
2023/02/06 11:20:58;;;;;;;3.88;1.70;;;;;;;17.81;51.59;104317.97;6169552;23;20068;-91
2023/02/06 11:23:28;;;;;;;3.05;1.58;;;;;;;17.82;51.89;104309.38;6122450;23;20438;-85
2023/02/06 11:26:09;;;;;;;4.10;1.83;;;;;;;17.82;51.91;104306.78;6163909;23;20009;-85
2023/02/06 11:28:38;;;;;;;2.50;1.40;;;;;;;17.81;51.90;104299.72;6162279;23;20484;-85
2023/02/06 11:31:06;;;;;;;3.45;1.50;;;;;;;17.82;51.77;104296.34;6188562;23;20013;-84
2023/02/06 11:33:51;;;;;;;3.88;1.60;;;;;;;17.82;51.78;104299.84;6161733;23;20016;-90
2023/02/06 11:36:25;;;;;;;3.20;1.50;;;;;;;17.83;51.85;104308.53;6141874;23;20009;-86
2023/02/06 11:39:00;;;;;;;4.28;1.63;;;;;;;17.83;51.77;104295.50;6164420;23;20344;-90
2023/02/06 11:41:27;;;;;;;4.85;1.95;;;;;;;17.81;51.39;104300.63;6163116;23;20000;-84
2023/02/06 11:44:01;;;;;;;4.68;1.70;;;;;;;17.83;51.59;104296.44;6163629;23;20008;-91
2023/02/06 11:46:31;;;;;;;;;;;;;;;17.84;51.63;104287.78;6164347;23;20337;-90
2023/02/06 11:48:59;;;;;;;3.15;1.60;;;;;;;17.84;51.56;104279.94;6162777;23;19934;-92
2023/02/06 11:51:44;;;;;;;3.00;1.73;;;;;;;17.85;51.74;104273.03;6163962;23;19997;-90
2023/02/06 11:54:19;;;;;;;3.97;1.50;;;;;;;17.84;51.65;104266.03;6163937;23;20100;-90
2023/02/06 11:57:02;;;;;;;3.20;1.42;;;;;;;17.85;51.29;104253.06;6163117;23;20005;-91
2023/02/06 11:59:29;;;;;;;3.30;1.30;;;;;;;17.85;51.66;104252.19;6162007;23;20460;-84
2023/02/06 12:01:56;;;;;;;4.55;1.58;;;;;;;17.84;51.49;104246.09;6161776;23;20001;-91
2023/02/06 12:04:39;;;;;;;3.63;1.45;;;;;;;17.83;51.37;104236.50;6163267;23;20104;-90
2023/02/06 12:07:32;;;;;;;4.35;1.50;;;;;;;17.83;51.56;104238.19;6161895;23;20007;-83
2023/02/06 12:09:58;;;;;;;3.17;1.50;;;;;;;17.82;51.69;104232.09;6161073;23;20005;-84
2023/02/06 12:12:55;;;;;;;3.35;1.50;;;;;;;17.82;51.42;104237.31;6160916;23;20005;-84
2023/02/06 12:15:44;;;;;;;3.80;1.58;;;;;;;17.82;51.53;104250.34;6160113;23;20009;-89
2023/02/06 12:18:33;;;;;;;4.50;1.70;;;;;;;17.83;51.50;104240.78;6163320;23;20009;-89
2023/02/06 12:21:04;;;;;;;3.40;1.60;;;;;;;17.83;51.45;104239.09;6162821;23;20005;-90
2023/02/06 12:30:49;;;;;;;3.20;1.40;;;;;;;17.94;51.16;104229.13;6193186;23;20083;-89
2023/02/06 12:33:24;;;;;;;5.32;1.58;;;;;;;17.94;51.18;104225.63;6103615;23;20005;-90
2023/02/06 12:36:02;;;;;;;3.30;1.42;;;;;;;17.94;51.19;104228.22;6164720;23;20012;-91
2023/02/06 12:38:34;;;;;;;2.72;1.50;;;;;;;17.94;51.03;104226.50;6164892;23;20016;-90
2023/02/06 12:41:57;;;;;;;2.40;1.33;;;;;;;17.95;51.14;104228.31;6164384;23;20009;-91
2023/02/06 12:44:38;;;;;;;3.60;1.38;;;;;;;17.94;51.25;104213.47;6047825;23;20010;-90
2023/02/06 12:47:45;;;;;;;3.75;1.40;;;;;;;17.96;51.28;104216.16;6047216;23;20404;-90
2023/02/06 12:50:16;;;;;;;2.58;1.20;;;;;;;17.96;51.14;104219.66;6161434;23;20493;-91
2023/02/06 12:52:55;;;;;;;4.05;1.33;;;;;;;17.95;51.20;104211.78;6166080;23;20307;-91
2023/02/06 12:55:55;;;;;;;3.13;1.30;;;;;;;17.98;51.16;104215.41;6164574;23;20425;-92
2023/02/06 12:58:50;;;;;;;2.50;1.38;;;;;;;18.02;50.79;104206.00;6164150;23;20033;-89
2023/02/06 13:01:36;;;;;;;2.78;1.33;;;;;;;18.06;50.92;104207.91;6164168;23;20009;-85
2023/02/06 13:04:08;;;;;;;2.83;1.33;;;;;;;18.08;51.13;104199.34;6161973;23;20016;-86
2023/02/06 13:07:18;;;;;;;3.28;1.30;;;;;;;18.12;50.91;104204.66;6162303;23;20011;-86
2023/02/06 13:10:22;;;;;;;2.10;1.10;;;;;;;18.11;50.80;104197.69;6155094;23;20012;-91
2023/02/06 13:12:57;;;;;;;3.38;1.30;;;;;;;18.08;50.82;104191.50;6145366;23;20009;-91
2023/02/06 13:15:25;;;;;;;3.95;1.40;;;;;;;18.09;50.76;104187.19;6163464;23;20001;-90
2023/02/06 13:17:54;;;;;;;3.00;1.35;;;;;;;18.07;50.86;104186.22;6163866;23;20001;-89
2023/02/06 13:20:23;;;;;;;3.65;1.45;;;;;;;18.04;51.11;104175.69;6163975;23;20001;-92
2023/02/06 13:23:08;;;;;;;3.95;1.17;;;;;;;18.05;51.17;104180.06;6163479;23;20025;-90
2023/02/06 13:25:35;;;;;;;2.22;1.20;;;;;;;18.07;50.86;104176.72;6163795;23;20043;-90
2023/02/06 13:28:21;;;;;;;2.47;1.17;;;;;;;18.09;50.90;104174.16;6163855;23;20001;-91
2023/02/06 13:31:19;;;;;;;2.42;1.20;;;;;;;18.13;50.87;104159.53;6157748;23;20021;-91
2023/02/06 13:33:56;;;;;;;2.28;1.27;;;;;;;18.17;50.84;104157.13;6158307;23;20478;-90
2023/02/06 13:36:43;;;;;;;2.30;1.08;;;;;;;18.19;50.73;104152.84;6183122;23;20012;-90
2023/02/06 13:39:21;;;;;;;2.85;1.13;;;;;;;18.17;50.32;104148.41;6158522;23;20013;-92
2023/02/06 13:41:48;;;;;;;2.58;1.15;;;;;;;18.18;50.77;104151.09;6157425;23;20331;-86
2023/02/06 13:44:24;;;;;;;2.83;1.30;;;;;;;18.18;50.63;104161.53;6133302;23;20005;-85
2023/02/06 13:47:15;;;;;;;2.28;1.25;;;;;;;18.18;50.59;104168.44;6159548;23;20016;-85
2023/02/06 13:49:59;;;;;;;3.22;1.00;;;;;;;18.20;50.52;104170.25;6183503;23;20005;-85
2023/02/06 13:52:53;;;;;;;2.05;1.10;;;;;;;18.18;50.60;104168.44;6159045;23;20028;-85
2023/02/06 13:56:03;;;;;;;2.97;1.13;;;;;;;18.18;50.55;104155.41;6154756;23;20014;-85
2023/02/06 13:58:38;;;;;;;3.45;1.15;;;;;;;18.14;50.51;104153.50;6079363;23;20007;-85
2023/02/06 14:01:11;;;;;;;3.25;1.10;;;;;;;18.15;50.47;104157.88;6078022;23;20486;-86
2023/02/06 14:03:42;;;;;;;2.88;1.00;;;;;;;18.14;50.81;104153.50;6134369;23;20037;-86
2023/02/06 14:06:53;;;;;;;2.63;1.17;;;;;;;18.14;50.48;104162.22;6183850;23;20008;-85
2023/02/06 14:09:29;;;;;;;2.08;1.10;;;;;;;18.13;50.64;104163.03;6157080;23;20004;-86
2023/02/06 14:12:33;;;;;;;2.45;1.10;;;;;;;18.13;50.72;104169.97;6182946;23;20423;-85
2023/02/06 14:15:13;;;;;;;3.08;1.00;;;;;;;18.13;50.68;104162.16;6167882;23;20389;-84
2023/02/06 14:18:15;;;;;;;2.92;1.00;;;;;;;18.12;50.50;104157.75;6172628;23;20005;-86
2023/02/06 14:20:43;;;;;;;2.38;1.08;;;;;;;18.13;50.56;104154.31;6162870;23;20013;-86
2023/02/06 14:24:06;;;;;;;3.13;1.20;;;;;;;18.14;50.71;104154.41;6160492;23;19998;-86
2023/02/06 14:27:05;;;;;;;2.38;0.90;;;;;;;18.14;50.88;104157.00;6044658;23;20448;-86
2023/02/06 14:29:52;;;;;;;2.90;1.30;;;;;;;18.16;50.58;104154.44;6043607;23;20090;-85
2023/02/06 14:32:17;;;;;;;2.40;1.13;;;;;;;18.15;50.63;104150.06;6136753;23;20020;-84
2023/02/06 14:35:07;;;;;;;2.75;1.10;;;;;;;18.15;50.54;104148.34;6158153;23;20092;-83
2023/02/06 14:38:11;;;;;;;1.70;0.80;;;;;;;18.15;50.85;104150.94;6181199;23;20008;-85
2023/02/06 14:40:41;;;;;;;2.72;1.23;;;;;;;18.16;50.69;104150.13;6140905;23;20018;-84
2023/02/06 14:43:12;;;;;;;1.60;0.90;;;;;;;18.17;50.61;104148.41;6156564;23;20091;-85
2023/02/06 14:45:40;;;;;;;3.38;1.30;;;;;;;18.18;50.67;104147.56;6156320;23;20004;-85
2023/02/06 14:48:18;;;;;;;2.75;1.13;;;;;;;18.18;50.55;104142.34;6157347;23;20009;-84
2023/02/06 14:50:49;;;;;;;3.78;1.35;;;;;;;18.17;50.38;104149.28;6156034;23;20092;-85
2023/02/06 14:53:59;;;;;;;2.25;0.98;;;;;;;18.18;50.46;104153.69;6166590;23;20057;-90
2023/02/06 14:56:35;;;;;;;2.58;1.13;;;;;;;18.16;50.31;104165.78;6186113;23;20518;-91
2023/02/06 14:59:30;;;;;;;2.75;1.08;;;;;;;18.16;50.47;104165.78;6157526;23;20375;-91
2023/02/06 15:01:57;;;;;;;3.58;1.30;;;;;;;18.15;50.51;104152.69;6108361;23;20010;-90
2023/02/06 15:04:28;;;;;;;2.00;1.00;;;;;;;18.14;50.42;104157.00;6158244;23;20005;-90
2023/02/06 15:07:02;;;;;;;2.08;1.00;;;;;;;18.14;50.66;104158.69;6157878;23;20006;-91
2023/02/06 15:09:29;;;;;;;2.42;1.20;;;;;;;18.14;50.49;104158.69;6134109;23;20037;-91
2023/02/06 15:11:57;;;;;;;2.40;1.20;;;;;;;18.13;50.53;104164.75;6182858;23;20016;-90
2023/02/06 15:14:29;;;;;;;2.67;1.20;;;;;;;18.11;50.57;104169.91;6158204;23;20006;-91
2023/02/06 15:16:58;;;;;;;2.88;1.40;;;;;;;18.12;50.59;104183.81;6157904;23;20029;-90
2023/02/06 15:19:28;;;;;;;2.78;1.00;;;;;;;18.12;50.69;104192.53;6158300;23;20001;-90
2023/02/06 15:22:00;;;;;;;2.17;0.90;;;;;;;18.12;50.72;104183.81;6157634;23;20002;-91
2023/02/06 15:24:43;;;;;;;2.00;0.90;;;;;;;18.12;50.68;104173.38;6157622;23;20036;-91
2023/02/06 15:27:18;;;;;;;;;;;;;;;18.12;50.65;104184.72;6182704;23;20088;-91
2023/02/06 15:29:50;;;;;;;1.48;0.90;;;;;;;18.11;50.57;104187.25;6157035;23;19915;-90
2023/02/06 15:32:37;;;;;;;3.38;1.20;;;;;;;18.09;50.73;104192.41;6132621;23;20013;-89
2023/02/06 15:35:18;;;;;;;3.95;1.20;;;;;;;18.11;50.72;104185.53;6133390;23;20410;-90
2023/02/06 15:37:43;;;;;;;2.97;1.17;;;;;;;18.10;50.67;104196.81;6133395;23;20005;-89
2023/02/06 15:40:34;;;;;;;3.05;1.10;;;;;;;18.11;50.68;104195.06;6085211;23;20013;-91
2023/02/06 15:43:01;;;;;;;2.90;1.20;;;;;;;18.09;50.62;104188.09;6133493;23;20005;-91
2023/02/06 15:45:34;;;;;;;2.78;1.23;;;;;;;18.07;50.28;104174.13;6108804;23;20341;-90
2023/02/06 15:48:16;;;;;;;3.15;1.13;;;;;;;18.08;50.66;104178.47;6132796;23;20013;-90
2023/02/06 15:50:54;;;;;;;2.33;1.10;;;;;;;18.08;50.67;104180.22;6133321;23;20002;-90
2023/02/06 15:53:29;;;;;;;3.22;1.08;;;;;;;18.09;50.55;104171.53;6134805;23;20005;-90
2023/02/06 15:55:55;;;;;;;2.20;1.00;;;;;;;18.09;50.73;104169.84;6134111;23;20020;-90
2023/02/06 15:58:22;;;;;;;2.85;1.17;;;;;;;18.09;50.63;104181.97;6110495;23;20009;-90
2023/02/06 16:00:56;;;;;;;2.78;1.10;;;;;;;18.07;50.61;104175.81;6109821;23;20036;-91
2023/02/06 16:03:25;;;;;;;2.65;1.17;;;;;;;18.08;50.63;104182.81;6133471;23;20001;-91
2023/02/06 16:05:51;;;;;;;2.97;1.17;;;;;;;18.06;50.71;104176.66;6134215;23;20001;-90
2023/02/06 16:08:36;;;;;;;3.00;1.02;;;;;;;18.08;50.67;104175.88;6133087;23;20075;-90
2023/02/06 16:11:44;;;;;;;3.13;1.10;;;;;;;18.06;50.69;104172.31;6109199;23;20005;-91
2023/02/06 16:13:52;;;;;;;2.92;1.17;;;;;;;18.06;50.80;104168.81;6159116;23;20373;-90
2023/02/06 16:16:21;;;;;;;2.42;1.10;;;;;;;18.06;50.81;104169.72;6132759;23;20438;-90
2023/02/06 16:18:50;;;;;;;2.42;1.10;;;;;;;18.05;50.74;104165.34;6133263;23;20378;-89
2023/02/06 16:21:16;;;;;;;3.72;1.40;;;;;;;18.07;50.57;104163.69;6110377;23;20010;-88
2023/02/06 16:23:49;;;;;;;2.60;1.30;;;;;;;18.05;50.72;104170.56;6133379;23;20056;-88
2023/02/06 16:26:19;;;;;;;3.60;1.17;;;;;;;18.06;50.80;104171.44;6132687;23;20100;-89
2023/02/06 16:29:03;;;;;;;3.28;1.20;;;;;;;18.04;50.61;104179.19;6159419;23;20010;-88
2023/02/06 16:31:32;;;;;;;2.25;1.30;;;;;;;18.06;50.85;104176.66;6152843;23;20048;-88
2023/02/06 16:34:07;;;;;;;2.65;1.20;;;;;;;18.04;50.72;104178.28;6161848;23;20008;-90
2023/02/06 16:36:33;;;;;;;3.35;1.02;;;;;;;18.04;50.78;104184.38;6139731;23;20013;-90
2023/02/06 16:38:59;;;;;;;2.60;1.20;;;;;;;18.07;50.69;104186.22;6137903;23;20013;-89
2023/02/06 16:41:26;;;;;;;3.75;1.38;;;;;;;18.07;50.65;104192.34;6163018;23;20020;-91
2023/02/06 16:43:53;;;;;;;3.88;1.20;;;;;;;18.07;50.60;104191.44;6162974;23;20001;-90
2023/02/06 16:46:19;;;;;;;3.10;1.13;;;;;;;18.06;50.58;104192.28;6161808;23;20035;-91
2023/02/06 16:48:45;;;;;;;3.40;1.33;;;;;;;18.05;50.64;104194.00;6138014;23;20013;-90
2023/02/06 16:51:26;;;;;;;9.73;1.85;;;;;;;18.08;50.75;104198.44;6119085;23;20009;-88
2023/02/06 16:53:52;;;;;;;9.25;1.40;;;;;;;18.07;50.78;104194.03;6177830;23;20005;-90
2023/02/06 16:56:19;;;;;;;5.68;1.55;;;;;;;18.05;50.70;104191.41;6157512;23;20043;-91
2023/02/06 16:58:45;;;;;;;4.88;1.38;;;;;;;18.05;50.71;104198.31;6151385;23;20015;-90
2023/02/06 17:01:24;;;;;;;3.83;1.10;;;;;;;18.05;50.48;104186.19;6143797;23;20009;-90
2023/02/06 17:03:53;;;;;;;6.50;1.50;;;;;;;18.04;50.65;104193.94;6167920;23;20005;-91
2023/02/06 17:06:26;;;;;;;8.32;1.48;;;;;;;18.06;50.77;104197.50;6173760;23;20036;-92
2023/02/06 17:08:56;;;;;;;4.55;1.00;;;;;;;18.04;50.72;104186.13;6175346;23;20333;-90
2023/02/06 17:11:21;;;;;;;3.10;1.10;;;;;;;18.04;50.67;104193.94;6175342;23;20040;-91
2023/02/06 17:13:47;;;;;;;4.22;1.40;;;;;;;18.05;50.50;104193.09;6170352;23;20008;-91
2023/02/06 17:16:17;;;;;;;3.53;1.50;;;;;;;18.03;50.48;104186.91;6125909;23;20024;-90
2023/02/06 17:18:44;;;;;;;3.55;1.33;;;;;;;18.03;50.73;104181.72;6184712;23;20001;-91
2023/02/06 17:21:12;;;;;;;2.75;1.40;;;;;;;18.03;50.78;104186.91;6121551;23;20009;-91
2023/02/06 17:23:39;;;;;;;7.05;1.50;;;;;;;18.03;50.68;104179.09;6166629;23;20334;-90
2023/02/06 17:26:04;;;;;;;3.72;1.60;;;;;;;18.02;50.84;104177.34;6166678;23;20160;-90
2023/02/06 17:28:30;;;;;;;3.97;1.50;;;;;;;18.03;50.59;104187.84;6165920;23;20422;-90
2023/02/06 17:30:55;;;;;;;2.55;1.40;;;;;;;18.03;50.55;104192.13;6116418;23;20017;-90
2023/02/06 17:33:21;;;;;;;5.03;1.40;;;;;;;18.03;50.89;104186.91;6141512;23;20009;-89
2023/02/06 17:35:47;;;;;;;1.95;1.02;;;;;;;18.03;50.63;104185.22;6140569;23;20001;-90
2023/02/06 17:38:12;;;;;;;3.13;1.20;;;;;;;18.03;50.55;104176.50;6116279;23;20008;-91